sensor_id;sensor_type;location;lat;lon;timestamp;pressure;altitude;pressure_sealevel;temperature
12918;BMP180;6526;54.312;13.092;2023-04-25T00:00:28;100587.00;;;12.00
12918;BMP180;6526;54.312;13.092;2023-04-25T00:02:55;100600.00;;;12.00
12918;BMP180;6526;54.312;13.092;2023-04-25T00:05:23;100588.00;;;12.00
12918;BMP180;6526;54.312;13.092;2023-04-25T00:07:49;100599.00;;;12.10
12918;BMP180;6526;54.312;13.092;2023-04-25T00:10:16;100590.00;;;12.10
12918;BMP180;6526;54.312;13.092;2023-04-25T00:12:42;100597.00;;;12.10
12918;BMP180;6526;54.312;13.092;2023-04-25T00:15:08;100579.00;;;12.20
12918;BMP180;6526;54.312;13.092;2023-04-25T00:17:35;100578.00;;;12.20
12918;BMP180;6526;54.312;13.092;2023-04-25T00:20:01;100583.00;;;12.20
12918;BMP180;6526;54.312;13.092;2023-04-25T00:22:30;100581.00;;;12.20
12918;BMP180;6526;54.312;13.092;2023-04-25T00:24:57;100586.00;;;12.30
12918;BMP180;6526;54.312;13.092;2023-04-25T00:27:26;100587.00;;;12.30
12918;BMP180;6526;54.312;13.092;2023-04-25T00:29:52;100591.00;;;12.30
12918;BMP180;6526;54.312;13.092;2023-04-25T00:32:18;100589.00;;;12.30
12918;BMP180;6526;54.312;13.092;2023-04-25T00:34:44;100582.00;;;12.20
12918;BMP180;6526;54.312;13.092;2023-04-25T00:37:11;100593.00;;;12.20
12918;BMP180;6526;54.312;13.092;2023-04-25T00:39:37;100583.00;;;12.20
12918;BMP180;6526;54.312;13.092;2023-04-25T00:42:03;100596.00;;;12.20
12918;BMP180;6526;54.312;13.092;2023-04-25T00:44:31;100582.00;;;12.20
12918;BMP180;6526;54.312;13.092;2023-04-25T00:46:58;100594.00;;;12.10
12918;BMP180;6526;54.312;13.092;2023-04-25T00:49:24;100599.00;;;12.10
12918;BMP180;6526;54.312;13.092;2023-04-25T00:51:50;100604.00;;;12.10
12918;BMP180;6526;54.312;13.092;2023-04-25T00:54:16;100611.00;;;12.10
12918;BMP180;6526;54.312;13.092;2023-04-25T00:56:43;100607.00;;;12.00
12918;BMP180;6526;54.312;13.092;2023-04-25T00:59:11;100605.00;;;12.00
12918;BMP180;6526;54.312;13.092;2023-04-25T01:01:38;100612.00;;;12.00
12918;BMP180;6526;54.312;13.092;2023-04-25T01:04:04;100606.00;;;11.90
12918;BMP180;6526;54.312;13.092;2023-04-25T01:06:30;100607.00;;;11.90
12918;BMP180;6526;54.312;13.092;2023-04-25T01:08:58;100594.00;;;11.90
12918;BMP180;6526;54.312;13.092;2023-04-25T01:11:25;100602.00;;;11.90
12918;BMP180;6526;54.312;13.092;2023-04-25T01:13:51;100607.00;;;12.00
12918;BMP180;6526;54.312;13.092;2023-04-25T01:16:17;100613.00;;;11.90
12918;BMP180;6526;54.312;13.092;2023-04-25T01:18:44;100613.00;;;12.00
12918;BMP180;6526;54.312;13.092;2023-04-25T01:21:11;100617.00;;;12.00
12918;BMP180;6526;54.312;13.092;2023-04-25T01:23:40;100609.00;;;12.00
12918;BMP180;6526;54.312;13.092;2023-04-25T01:26:10;100613.00;;;12.00
12918;BMP180;6526;54.312;13.092;2023-04-25T01:28:38;100619.00;;;12.10
12918;BMP180;6526;54.312;13.092;2023-04-25T01:31:07;100626.00;;;12.10
12918;BMP180;6526;54.312;13.092;2023-04-25T01:33:33;100626.00;;;12.00
12918;BMP180;6526;54.312;13.092;2023-04-25T01:35:59;100633.00;;;12.00
12918;BMP180;6526;54.312;13.092;2023-04-25T01:38:25;100613.00;;;12.00
12918;BMP180;6526;54.312;13.092;2023-04-25T01:40:51;100625.00;;;12.10
12918;BMP180;6526;54.312;13.092;2023-04-25T01:43:19;100624.00;;;12.10
12918;BMP180;6526;54.312;13.092;2023-04-25T01:45:45;100624.00;;;12.10
12918;BMP180;6526;54.312;13.092;2023-04-25T01:48:13;100624.00;;;12.10
12918;BMP180;6526;54.312;13.092;2023-04-25T01:50:40;100620.00;;;12.10
12918;BMP180;6526;54.312;13.092;2023-04-25T01:53:06;100619.00;;;12.00
12918;BMP180;6526;54.312;13.092;2023-04-25T01:55:34;100612.00;;;12.00
12918;BMP180;6526;54.312;13.092;2023-04-25T01:58:02;100611.00;;;12.00
12918;BMP180;6526;54.312;13.092;2023-04-25T02:00:28;100610.00;;;11.90
12918;BMP180;6526;54.312;13.092;2023-04-25T02:02:58;100623.00;;;12.00
12918;BMP180;6526;54.312;13.092;2023-04-25T02:05:24;100624.00;;;11.90
12918;BMP180;6526;54.312;13.092;2023-04-25T02:17:58;100616.00;;;11.90
12918;BMP180;6526;54.312;13.092;2023-04-25T02:20:27;100621.00;;;12.00
12918;BMP180;6526;54.312;13.092;2023-04-25T02:22:53;100627.00;;;12.00
12918;BMP180;6526;54.312;13.092;2023-04-25T02:25:20;100624.00;;;11.90
12918;BMP180;6526;54.312;13.092;2023-04-25T02:27:47;100621.00;;;12.00
12918;BMP180;6526;54.312;13.092;2023-04-25T02:30:13;100635.00;;;12.00
12918;BMP180;6526;54.312;13.092;2023-04-25T02:32:40;100632.00;;;12.00
12918;BMP180;6526;54.312;13.092;2023-04-25T02:35:07;100629.00;;;12.10
12918;BMP180;6526;54.312;13.092;2023-04-25T02:37:34;100639.00;;;12.00
12918;BMP180;6526;54.312;13.092;2023-04-25T02:40:01;100635.00;;;12.00
12918;BMP180;6526;54.312;13.092;2023-04-25T02:42:27;100630.00;;;12.00
12918;BMP180;6526;54.312;13.092;2023-04-25T02:44:53;100626.00;;;12.00
12918;BMP180;6526;54.312;13.092;2023-04-25T02:47:20;100631.00;;;12.00
12918;BMP180;6526;54.312;13.092;2023-04-25T02:49:46;100635.00;;;12.00
12918;BMP180;6526;54.312;13.092;2023-04-25T02:52:12;100635.00;;;11.90
12918;BMP180;6526;54.312;13.092;2023-04-25T02:54:39;100636.00;;;12.00
12918;BMP180;6526;54.312;13.092;2023-04-25T02:57:06;100634.00;;;12.00
12918;BMP180;6526;54.312;13.092;2023-04-25T02:59:32;100631.00;;;12.00
12918;BMP180;6526;54.312;13.092;2023-04-25T03:01:58;100634.00;;;12.00
12918;BMP180;6526;54.312;13.092;2023-04-25T03:04:24;100628.00;;;11.90
12918;BMP180;6526;54.312;13.092;2023-04-25T03:06:51;100629.00;;;11.80
12918;BMP180;6526;54.312;13.092;2023-04-25T03:09:17;100623.00;;;11.90
12918;BMP180;6526;54.312;13.092;2023-04-25T03:11:44;100629.00;;;11.90
12918;BMP180;6526;54.312;13.092;2023-04-25T03:14:11;100629.00;;;11.90
12918;BMP180;6526;54.312;13.092;2023-04-25T03:16:37;100630.00;;;11.90
12918;BMP180;6526;54.312;13.092;2023-04-25T03:19:03;100620.00;;;11.90
12918;BMP180;6526;54.312;13.092;2023-04-25T03:21:31;100636.00;;;11.80
12918;BMP180;6526;54.312;13.092;2023-04-25T03:23:58;100618.00;;;11.80
12918;BMP180;6526;54.312;13.092;2023-04-25T03:26:25;100627.00;;;11.80
12918;BMP180;6526;54.312;13.092;2023-04-25T03:28:51;100632.00;;;11.70
12918;BMP180;6526;54.312;13.092;2023-04-25T03:31:17;100619.00;;;11.70
12918;BMP180;6526;54.312;13.092;2023-04-25T03:33:43;100629.00;;;11.80
12918;BMP180;6526;54.312;13.092;2023-04-25T03:36:09;100628.00;;;11.70
12918;BMP180;6526;54.312;13.092;2023-04-25T03:38:35;100632.00;;;11.80
12918;BMP180;6526;54.312;13.092;2023-04-25T03:41:02;100634.00;;;11.70
12918;BMP180;6526;54.312;13.092;2023-04-25T03:43:28;100631.00;;;11.70
12918;BMP180;6526;54.312;13.092;2023-04-25T03:45:55;100646.00;;;11.70
12918;BMP180;6526;54.312;13.092;2023-04-25T03:48:21;100639.00;;;11.70
12918;BMP180;6526;54.312;13.092;2023-04-25T03:50:48;100636.00;;;11.60
12918;BMP180;6526;54.312;13.092;2023-04-25T03:53:14;100637.00;;;11.50
12918;BMP180;6526;54.312;13.092;2023-04-25T03:55:40;100641.00;;;11.50
12918;BMP180;6526;54.312;13.092;2023-04-25T03:58:06;100645.00;;;11.50
12918;BMP180;6526;54.312;13.092;2023-04-25T04:00:34;100651.00;;;11.40
12918;BMP180;6526;54.312;13.092;2023-04-25T04:03:00;100649.00;;;11.40
12918;BMP180;6526;54.312;13.092;2023-04-25T04:05:26;100652.00;;;11.30
12918;BMP180;6526;54.312;13.092;2023-04-25T04:07:53;100659.00;;;11.30
12918;BMP180;6526;54.312;13.092;2023-04-25T04:10:19;100651.00;;;11.20
12918;BMP180;6526;54.312;13.092;2023-04-25T04:12:45;100650.00;;;11.30
12918;BMP180;6526;54.312;13.092;2023-04-25T04:15:12;100664.00;;;11.30
12918;BMP180;6526;54.312;13.092;2023-04-25T04:17:38;100659.00;;;11.30
12918;BMP180;6526;54.312;13.092;2023-04-25T04:20:05;100672.00;;;11.30
12918;BMP180;6526;54.312;13.092;2023-04-25T04:22:32;100664.00;;;11.30
12918;BMP180;6526;54.312;13.092;2023-04-25T04:24:58;100669.00;;;11.20
12918;BMP180;6526;54.312;13.092;2023-04-25T04:27:24;100668.00;;;11.20
12918;BMP180;6526;54.312;13.092;2023-04-25T04:29:50;100662.00;;;11.20
12918;BMP180;6526;54.312;13.092;2023-04-25T04:32:18;100675.00;;;11.20
12918;BMP180;6526;54.312;13.092;2023-04-25T04:34:44;100687.00;;;11.20
12918;BMP180;6526;54.312;13.092;2023-04-25T04:37:10;100692.00;;;11.20
12918;BMP180;6526;54.312;13.092;2023-04-25T04:39:39;100689.00;;;11.10
12918;BMP180;6526;54.312;13.092;2023-04-25T04:42:05;100683.00;;;11.10
12918;BMP180;6526;54.312;13.092;2023-04-25T04:44:31;100675.00;;;11.10
12918;BMP180;6526;54.312;13.092;2023-04-25T04:47:01;100683.00;;;11.10
12918;BMP180;6526;54.312;13.092;2023-04-25T04:49:27;100696.00;;;11.10
12918;BMP180;6526;54.312;13.092;2023-04-25T04:51:53;100693.00;;;11.10
12918;BMP180;6526;54.312;13.092;2023-04-25T04:54:20;100707.00;;;11.20
12918;BMP180;6526;54.312;13.092;2023-04-25T04:56:46;100692.00;;;11.20
12918;BMP180;6526;54.312;13.092;2023-04-25T04:59:12;100696.00;;;11.20
12918;BMP180;6526;54.312;13.092;2023-04-25T05:01:38;100698.00;;;11.20
12918;BMP180;6526;54.312;13.092;2023-04-25T05:04:05;100694.00;;;11.30
12918;BMP180;6526;54.312;13.092;2023-04-25T05:06:31;100705.00;;;11.30
12918;BMP180;6526;54.312;13.092;2023-04-25T05:08:58;100700.00;;;11.30
12918;BMP180;6526;54.312;13.092;2023-04-25T05:11:24;100692.00;;;11.40
12918;BMP180;6526;54.312;13.092;2023-04-25T05:13:52;100697.00;;;11.40
12918;BMP180;6526;54.312;13.092;2023-04-25T05:16:18;100704.00;;;11.30
12918;BMP180;6526;54.312;13.092;2023-04-25T05:18:45;100696.00;;;11.30
12918;BMP180;6526;54.312;13.092;2023-04-25T05:21:12;100700.00;;;11.30
12918;BMP180;6526;54.312;13.092;2023-04-25T05:23:38;100698.00;;;11.30
12918;BMP180;6526;54.312;13.092;2023-04-25T05:26:04;100681.00;;;11.30
12918;BMP180;6526;54.312;13.092;2023-04-25T05:28:30;100710.00;;;11.30
12918;BMP180;6526;54.312;13.092;2023-04-25T05:30:56;100712.00;;;11.20
12918;BMP180;6526;54.312;13.092;2023-04-25T05:33:22;100717.00;;;11.30
12918;BMP180;6526;54.312;13.092;2023-04-25T05:35:49;100711.00;;;11.30
12918;BMP180;6526;54.312;13.092;2023-04-25T05:38:15;100699.00;;;11.40
12918;BMP180;6526;54.312;13.092;2023-04-25T05:40:41;100710.00;;;11.50
12918;BMP180;6526;54.312;13.092;2023-04-25T05:43:07;100715.00;;;11.60
12918;BMP180;6526;54.312;13.092;2023-04-25T05:45:33;100708.00;;;11.70
12918;BMP180;6526;54.312;13.092;2023-04-25T05:47:59;100716.00;;;11.70
12918;BMP180;6526;54.312;13.092;2023-04-25T05:50:25;100714.00;;;11.80
12918;BMP180;6526;54.312;13.092;2023-04-25T05:52:51;100714.00;;;11.80
12918;BMP180;6526;54.312;13.092;2023-04-25T05:55:17;100714.00;;;11.90
12918;BMP180;6526;54.312;13.092;2023-04-25T05:57:43;100723.00;;;12.00
12918;BMP180;6526;54.312;13.092;2023-04-25T06:00:12;100724.00;;;12.20
12918;BMP180;6526;54.312;13.092;2023-04-25T06:02:38;100724.00;;;12.20
12918;BMP180;6526;54.312;13.092;2023-04-25T06:05:04;100728.00;;;12.10
12918;BMP180;6526;54.312;13.092;2023-04-25T06:07:30;100730.00;;;12.10
12918;BMP180;6526;54.312;13.092;2023-04-25T06:09:57;100741.00;;;12.30
12918;BMP180;6526;54.312;13.092;2023-04-25T06:12:23;100741.00;;;12.20
12918;BMP180;6526;54.312;13.092;2023-04-25T06:14:49;100741.00;;;12.20
12918;BMP180;6526;54.312;13.092;2023-04-25T06:17:15;100747.00;;;12.30
12918;BMP180;6526;54.312;13.092;2023-04-25T06:19:41;100767.00;;;12.10
12918;BMP180;6526;54.312;13.092;2023-04-25T06:22:07;100755.00;;;12.10
12918;BMP180;6526;54.312;13.092;2023-04-25T06:24:34;100758.00;;;12.10
12918;BMP180;6526;54.312;13.092;2023-04-25T06:27:00;100766.00;;;12.00
12918;BMP180;6526;54.312;13.092;2023-04-25T06:29:26;100756.00;;;11.90
12918;BMP180;6526;54.312;13.092;2023-04-25T06:31:53;100766.00;;;12.00
12918;BMP180;6526;54.312;13.092;2023-04-25T06:34:19;100762.00;;;12.00
12918;BMP180;6526;54.312;13.092;2023-04-25T06:36:45;100747.00;;;12.10
12918;BMP180;6526;54.312;13.092;2023-04-25T06:39:11;100764.00;;;12.00
12918;BMP180;6526;54.312;13.092;2023-04-25T06:41:37;100768.00;;;11.90
12918;BMP180;6526;54.312;13.092;2023-04-25T06:44:03;100773.00;;;11.80
12918;BMP180;6526;54.312;13.092;2023-04-25T06:46:29;100763.00;;;11.70
12918;BMP180;6526;54.312;13.092;2023-04-25T06:48:55;100767.00;;;11.70
12918;BMP180;6526;54.312;13.092;2023-04-25T06:51:21;100762.00;;;11.80
12918;BMP180;6526;54.312;13.092;2023-04-25T06:53:47;100758.00;;;12.00
12918;BMP180;6526;54.312;13.092;2023-04-25T06:56:13;100766.00;;;12.10
12918;BMP180;6526;54.312;13.092;2023-04-25T06:58:40;100775.00;;;12.20
12918;BMP180;6526;54.312;13.092;2023-04-25T07:01:06;100775.00;;;12.20
12918;BMP180;6526;54.312;13.092;2023-04-25T07:03:32;100790.00;;;12.20
12918;BMP180;6526;54.312;13.092;2023-04-25T07:05:58;100779.00;;;12.10
12918;BMP180;6526;54.312;13.092;2023-04-25T07:08:24;100767.00;;;12.00
12918;BMP180;6526;54.312;13.092;2023-04-25T07:10:50;100765.00;;;11.90
12918;BMP180;6526;54.312;13.092;2023-04-25T07:13:16;100779.00;;;11.90
12918;BMP180;6526;54.312;13.092;2023-04-25T07:15:42;100788.00;;;11.90
12918;BMP180;6526;54.312;13.092;2023-04-25T07:18:09;100794.00;;;11.90
12918;BMP180;6526;54.312;13.092;2023-04-25T07:20:35;100798.00;;;11.90
12918;BMP180;6526;54.312;13.092;2023-04-25T07:23:01;100793.00;;;11.90
12918;BMP180;6526;54.312;13.092;2023-04-25T07:25:27;100790.00;;;11.80
12918;BMP180;6526;54.312;13.092;2023-04-25T07:27:53;100795.00;;;11.90
12918;BMP180;6526;54.312;13.092;2023-04-25T07:30:19;100803.00;;;12.00
12918;BMP180;6526;54.312;13.092;2023-04-25T07:32:45;100787.00;;;12.20
12918;BMP180;6526;54.312;13.092;2023-04-25T07:35:11;100785.00;;;12.20
12918;BMP180;6526;54.312;13.092;2023-04-25T07:37:37;100783.00;;;12.20
12918;BMP180;6526;54.312;13.092;2023-04-25T07:40:04;100795.00;;;12.10
12918;BMP180;6526;54.312;13.092;2023-04-25T07:42:30;100806.00;;;12.10
12918;BMP180;6526;54.312;13.092;2023-04-25T07:44:57;100790.00;;;12.10
12918;BMP180;6526;54.312;13.092;2023-04-25T07:47:23;100800.00;;;12.10
12918;BMP180;6526;54.312;13.092;2023-04-25T07:49:49;100804.00;;;12.10
12918;BMP180;6526;54.312;13.092;2023-04-25T07:52:15;100802.00;;;12.00
12918;BMP180;6526;54.312;13.092;2023-04-25T07:54:41;100813.00;;;12.00
12918;BMP180;6526;54.312;13.092;2023-04-25T07:57:07;100811.00;;;12.00
12918;BMP180;6526;54.312;13.092;2023-04-25T07:59:33;100826.00;;;11.90
12918;BMP180;6526;54.312;13.092;2023-04-25T08:02:00;100827.00;;;11.90
12918;BMP180;6526;54.312;13.092;2023-04-25T08:04:26;100828.00;;;11.60
12918;BMP180;6526;54.312;13.092;2023-04-25T08:06:52;100831.00;;;11.70
12918;BMP180;6526;54.312;13.092;2023-04-25T08:09:20;100851.00;;;11.60
12918;BMP180;6526;54.312;13.092;2023-04-25T08:11:46;100844.00;;;11.60
12918;BMP180;6526;54.312;13.092;2023-04-25T08:14:13;100838.00;;;11.50
12918;BMP180;6526;54.312;13.092;2023-04-25T08:16:39;100848.00;;;11.50
12918;BMP180;6526;54.312;13.092;2023-04-25T08:19:05;100849.00;;;11.40
12918;BMP180;6526;54.312;13.092;2023-04-25T08:21:32;100863.00;;;11.40
12918;BMP180;6526;54.312;13.092;2023-04-25T08:23:58;100864.00;;;11.40
12918;BMP180;6526;54.312;13.092;2023-04-25T08:26:24;100864.00;;;11.50
12918;BMP180;6526;54.312;13.092;2023-04-25T08:28:51;100856.00;;;11.50
12918;BMP180;6526;54.312;13.092;2023-04-25T08:31:17;100861.00;;;11.50
12918;BMP180;6526;54.312;13.092;2023-04-25T08:33:43;100867.00;;;11.50
12918;BMP180;6526;54.312;13.092;2023-04-25T08:36:10;100865.00;;;11.50
12918;BMP180;6526;54.312;13.092;2023-04-25T08:38:37;100866.00;;;11.50
12918;BMP180;6526;54.312;13.092;2023-04-25T08:41:03;100867.00;;;11.60
12918;BMP180;6526;54.312;13.092;2023-04-25T08:43:31;100875.00;;;11.70
12918;BMP180;6526;54.312;13.092;2023-04-25T08:46:00;100873.00;;;11.70
12918;BMP180;6526;54.312;13.092;2023-04-25T08:48:28;100884.00;;;11.90
12918;BMP180;6526;54.312;13.092;2023-04-25T08:50:55;100881.00;;;11.90
12918;BMP180;6526;54.312;13.092;2023-04-25T08:53:29;100893.00;;;11.90
12918;BMP180;6526;54.312;13.092;2023-04-25T08:55:57;100892.00;;;11.90
12918;BMP180;6526;54.312;13.092;2023-04-25T08:58:24;100891.00;;;11.80
12918;BMP180;6526;54.312;13.092;2023-04-25T09:00:51;100890.00;;;11.70
12918;BMP180;6526;54.312;13.092;2023-04-25T09:03:17;100896.00;;;11.60
12918;BMP180;6526;54.312;13.092;2023-04-25T09:05:44;100899.00;;;11.60
12918;BMP180;6526;54.312;13.092;2023-04-25T09:08:10;100908.00;;;11.50
12918;BMP180;6526;54.312;13.092;2023-04-25T09:10:37;100904.00;;;11.50
12918;BMP180;6526;54.312;13.092;2023-04-25T09:13:08;100913.00;;;11.50
12918;BMP180;6526;54.312;13.092;2023-04-25T09:15:48;100906.00;;;11.50
12918;BMP180;6526;54.312;13.092;2023-04-25T09:20:48;100917.00;;;11.70
12918;BMP180;6526;54.312;13.092;2023-04-25T09:23:15;100919.00;;;11.80
12918;BMP180;6526;54.312;13.092;2023-04-25T09:25:41;100928.00;;;11.80
12918;BMP180;6526;54.312;13.092;2023-04-25T09:28:09;100923.00;;;11.90
12918;BMP180;6526;54.312;13.092;2023-04-25T09:30:36;100932.00;;;11.90
12918;BMP180;6526;54.312;13.092;2023-04-25T09:33:07;100933.00;;;11.90
12918;BMP180;6526;54.312;13.092;2023-04-25T09:35:41;100922.00;;;11.90
12918;BMP180;6526;54.312;13.092;2023-04-25T09:38:15;100928.00;;;12.00
12918;BMP180;6526;54.312;13.092;2023-04-25T09:40:45;100944.00;;;11.90
12918;BMP180;6526;54.312;13.092;2023-04-25T09:43:18;100949.00;;;11.90
12918;BMP180;6526;54.312;13.092;2023-04-25T09:45:44;100944.00;;;11.90
12918;BMP180;6526;54.312;13.092;2023-04-25T09:48:12;100935.00;;;12.00
12918;BMP180;6526;54.312;13.092;2023-04-25T09:50:41;100946.00;;;12.10
12918;BMP180;6526;54.312;13.092;2023-04-25T09:53:07;100955.00;;;12.20
12918;BMP180;6526;54.312;13.092;2023-04-25T09:55:34;100953.00;;;12.30
12918;BMP180;6526;54.312;13.092;2023-04-25T09:58:04;100955.00;;;12.30
12918;BMP180;6526;54.312;13.092;2023-04-25T10:00:33;100961.00;;;12.20
12918;BMP180;6526;54.312;13.092;2023-04-25T10:03:01;100951.00;;;12.20
12918;BMP180;6526;54.312;13.092;2023-04-25T10:05:30;100967.00;;;12.00
12918;BMP180;6526;54.312;13.092;2023-04-25T10:08:00;100954.00;;;12.00
12918;BMP180;6526;54.312;13.092;2023-04-25T10:10:28;100957.00;;;12.00
12918;BMP180;6526;54.312;13.092;2023-04-25T10:12:56;100953.00;;;12.00
12918;BMP180;6526;54.312;13.092;2023-04-25T10:15:22;100956.00;;;12.10
12918;BMP180;6526;54.312;13.092;2023-04-25T10:17:49;100957.00;;;12.20
12918;BMP180;6526;54.312;13.092;2023-04-25T10:20:16;100957.00;;;12.30
12918;BMP180;6526;54.312;13.092;2023-04-25T10:22:44;100979.00;;;12.30
12918;BMP180;6526;54.312;13.092;2023-04-25T10:25:11;100966.00;;;12.30
12918;BMP180;6526;54.312;13.092;2023-04-25T10:27:38;100981.00;;;12.40
12918;BMP180;6526;54.312;13.092;2023-04-25T10:30:09;100981.00;;;12.50
12918;BMP180;6526;54.312;13.092;2023-04-25T10:32:38;100971.00;;;12.60
12918;BMP180;6526;54.312;13.092;2023-04-25T10:35:16;100980.00;;;12.60
12918;BMP180;6526;54.312;13.092;2023-04-25T10:38:02;100969.00;;;12.60
12918;BMP180;6526;54.312;13.092;2023-04-25T10:40:29;100964.00;;;12.40
12918;BMP180;6526;54.312;13.092;2023-04-25T10:42:55;100993.00;;;12.30
12918;BMP180;6526;54.312;13.092;2023-04-25T10:45:51;100973.00;;;12.40
12918;BMP180;6526;54.312;13.092;2023-04-25T10:48:28;100971.00;;;12.60
12918;BMP180;6526;54.312;13.092;2023-04-25T10:51:20;100996.00;;;12.70
12918;BMP180;6526;54.312;13.092;2023-04-25T10:53:56;100985.00;;;12.70
12918;BMP180;6526;54.312;13.092;2023-04-25T10:56:27;100985.00;;;12.60
12918;BMP180;6526;54.312;13.092;2023-04-25T11:01:39;100991.00;;;12.70
12918;BMP180;6526;54.312;13.092;2023-04-25T11:04:06;100986.00;;;12.70
12918;BMP180;6526;54.312;13.092;2023-04-25T11:06:59;100991.00;;;12.70
12918;BMP180;6526;54.312;13.092;2023-04-25T11:09:28;101023.00;;;12.60
12918;BMP180;6526;54.312;13.092;2023-04-25T11:11:58;101012.00;;;12.60
12918;BMP180;6526;54.312;13.092;2023-04-25T11:14:26;101021.00;;;12.50
12918;BMP180;6526;54.312;13.092;2023-04-25T11:16:58;101000.00;;;12.40
12918;BMP180;6526;54.312;13.092;2023-04-25T11:19:26;101021.00;;;12.30
12918;BMP180;6526;54.312;13.092;2023-04-25T11:22:02;101012.00;;;12.30
12918;BMP180;6526;54.312;13.092;2023-04-25T11:24:33;101023.00;;;12.40
12918;BMP180;6526;54.312;13.092;2023-04-25T11:27:01;101024.00;;;12.40
12918;BMP180;6526;54.312;13.092;2023-04-25T11:29:33;101028.00;;;12.40
12918;BMP180;6526;54.312;13.092;2023-04-25T11:32:00;101024.00;;;12.30
12918;BMP180;6526;54.312;13.092;2023-04-25T11:34:27;101022.00;;;12.40
12918;BMP180;6526;54.312;13.092;2023-04-25T11:36:57;101012.00;;;12.60
12918;BMP180;6526;54.312;13.092;2023-04-25T11:39:27;101004.00;;;12.80
12918;BMP180;6526;54.312;13.092;2023-04-25T11:41:53;101010.00;;;13.20
12918;BMP180;6526;54.312;13.092;2023-04-25T11:44:20;101027.00;;;13.50
12918;BMP180;6526;54.312;13.092;2023-04-25T11:46:47;101009.00;;;13.40
12918;BMP180;6526;54.312;13.092;2023-04-25T11:49:14;101015.00;;;13.40
12918;BMP180;6526;54.312;13.092;2023-04-25T11:51:48;101026.00;;;13.30
12918;BMP180;6526;54.312;13.092;2023-04-25T11:54:14;101015.00;;;13.30
12918;BMP180;6526;54.312;13.092;2023-04-25T11:56:45;101007.00;;;13.40
12918;BMP180;6526;54.312;13.092;2023-04-25T11:59:12;101015.00;;;13.40
12918;BMP180;6526;54.312;13.092;2023-04-25T12:01:40;101026.00;;;13.40
12918;BMP180;6526;54.312;13.092;2023-04-25T12:04:20;101019.00;;;13.40
12918;BMP180;6526;54.312;13.092;2023-04-25T12:06:49;101020.00;;;13.30
12918;BMP180;6526;54.312;13.092;2023-04-25T12:09:18;101040.00;;;13.30
12918;BMP180;6526;54.312;13.092;2023-04-25T12:11:55;101039.00;;;13.30
12918;BMP180;6526;54.312;13.092;2023-04-25T12:14:29;101028.00;;;13.30
12918;BMP180;6526;54.312;13.092;2023-04-25T12:16:57;101042.00;;;13.30
12918;BMP180;6526;54.312;13.092;2023-04-25T12:19:23;101050.00;;;13.20
12918;BMP180;6526;54.312;13.092;2023-04-25T12:21:50;101060.00;;;13.10
12918;BMP180;6526;54.312;13.092;2023-04-25T12:24:24;101063.00;;;13.10
12918;BMP180;6526;54.312;13.092;2023-04-25T12:26:53;101061.00;;;13.10
12918;BMP180;6526;54.312;13.092;2023-04-25T12:29:25;101061.00;;;13.00
12918;BMP180;6526;54.312;13.092;2023-04-25T12:31:52;101046.00;;;13.10
12918;BMP180;6526;54.312;13.092;2023-04-25T12:34:19;101044.00;;;13.30
12918;BMP180;6526;54.312;13.092;2023-04-25T12:36:45;101033.00;;;13.40
12918;BMP180;6526;54.312;13.092;2023-04-25T12:39:22;101046.00;;;13.70
12918;BMP180;6526;54.312;13.092;2023-04-25T12:41:49;101055.00;;;13.70
12918;BMP180;6526;54.312;13.092;2023-04-25T12:44:16;101057.00;;;13.60
12918;BMP180;6526;54.312;13.092;2023-04-25T12:46:42;101051.00;;;13.50
12918;BMP180;6526;54.312;13.092;2023-04-25T12:49:09;101061.00;;;13.30
12918;BMP180;6526;54.312;13.092;2023-04-25T12:51:35;101063.00;;;13.20
12918;BMP180;6526;54.312;13.092;2023-04-25T12:54:03;101074.00;;;13.00
12918;BMP180;6526;54.312;13.092;2023-04-25T12:56:30;101063.00;;;12.90
12918;BMP180;6526;54.312;13.092;2023-04-25T12:58:57;101067.00;;;12.90
12918;BMP180;6526;54.312;13.092;2023-04-25T13:01:24;101066.00;;;12.90
12918;BMP180;6526;54.312;13.092;2023-04-25T13:03:50;101077.00;;;12.90
12918;BMP180;6526;54.312;13.092;2023-04-25T13:06:18;101076.00;;;12.80
12918;BMP180;6526;54.312;13.092;2023-04-25T13:08:44;101072.00;;;12.90
12918;BMP180;6526;54.312;13.092;2023-04-25T13:11:11;101073.00;;;13.10
12918;BMP180;6526;54.312;13.092;2023-04-25T13:13:37;101070.00;;;13.00
12918;BMP180;6526;54.312;13.092;2023-04-25T13:16:04;101077.00;;;13.00
12918;BMP180;6526;54.312;13.092;2023-04-25T13:18:31;101066.00;;;12.90
12918;BMP180;6526;54.312;13.092;2023-04-25T13:20:58;101075.00;;;13.00
12918;BMP180;6526;54.312;13.092;2023-04-25T13:23:25;101076.00;;;13.30
12918;BMP180;6526;54.312;13.092;2023-04-25T13:25:52;101084.00;;;13.40
12918;BMP180;6526;54.312;13.092;2023-04-25T13:28:19;101077.00;;;13.60
12918;BMP180;6526;54.312;13.092;2023-04-25T13:30:45;101069.00;;;13.70
12918;BMP180;6526;54.312;13.092;2023-04-25T13:33:11;101071.00;;;13.60
12918;BMP180;6526;54.312;13.092;2023-04-25T13:35:38;101075.00;;;13.80
12918;BMP180;6526;54.312;13.092;2023-04-25T13:38:04;101081.00;;;13.70
12918;BMP180;6526;54.312;13.092;2023-04-25T13:40:30;101073.00;;;13.60
12918;BMP180;6526;54.312;13.092;2023-04-25T13:42:57;101075.00;;;13.50
12918;BMP180;6526;54.312;13.092;2023-04-25T13:45:24;101078.00;;;13.10
12918;BMP180;6526;54.312;13.092;2023-04-25T13:47:50;101062.00;;;13.60
12918;BMP180;6526;54.312;13.092;2023-04-25T13:50:16;101060.00;;;13.70
12918;BMP180;6526;54.312;13.092;2023-04-25T13:52:42;101069.00;;;13.80
12918;BMP180;6526;54.312;13.092;2023-04-25T13:55:09;101083.00;;;14.00
12918;BMP180;6526;54.312;13.092;2023-04-25T13:57:36;101076.00;;;14.20
12918;BMP180;6526;54.312;13.092;2023-04-25T14:00:04;101081.00;;;14.20
12918;BMP180;6526;54.312;13.092;2023-04-25T14:02:35;101083.00;;;14.30
12918;BMP180;6526;54.312;13.092;2023-04-25T14:05:01;101070.00;;;14.20
12918;BMP180;6526;54.312;13.092;2023-04-25T14:07:27;101076.00;;;14.20
12918;BMP180;6526;54.312;13.092;2023-04-25T14:09:54;101082.00;;;14.10
12918;BMP180;6526;54.312;13.092;2023-04-25T14:12:20;101073.00;;;14.20